createdAt,value
2018-04-23T00:00:52.944Z,9.17
2018-04-23T00:03:21.259Z,6.93
2018-04-23T00:05:48.827Z,7.60
2018-04-23T00:08:16.368Z,7.73
2018-04-23T00:10:43.892Z,8.43
2018-04-23T00:13:12.250Z,8.57
2018-04-23T00:15:39.768Z,9.67
2018-04-23T00:18:07.316Z,9.80
2018-04-23T00:20:34.841Z,8.37
2018-04-23T00:23:03.186Z,12.93
2018-04-23T00:25:30.724Z,11.00
2018-04-23T00:27:58.276Z,9.13
2018-04-23T00:30:25.824Z,9.10
2018-04-23T00:32:53.380Z,9.00
2018-04-23T00:35:21.669Z,9.80
2018-04-23T00:37:49.215Z,10.33
2018-04-23T00:40:17.500Z,8.47
2018-04-23T00:42:45.030Z,10.83
2018-04-23T00:45:12.583Z,12.37
2018-04-23T00:47:40.104Z,10.33
2018-04-23T00:50:07.718Z,12.00
2018-04-23T00:52:35.203Z,10.70
2018-04-23T00:55:02.773Z,11.23
2018-04-23T00:57:30.288Z,11.90
2018-04-23T00:59:57.845Z,9.70
2018-04-23T01:02:25.367Z,11.37
2018-04-23T01:04:52.911Z,11.83
2018-04-23T01:07:20.440Z,12.47
2018-04-23T01:09:48.761Z,10.60
2018-04-23T01:12:16.284Z,12.07
2018-04-23T01:14:44.608Z,10.73
2018-04-23T01:17:12.180Z,12.63
2018-04-23T01:19:39.700Z,11.90
2018-04-23T01:22:07.227Z,13.83
2018-04-23T01:24:34.782Z,10.63
2018-04-23T01:27:02.299Z,11.93
2018-04-23T01:29:29.843Z,12.23
2018-04-23T01:31:57.363Z,13.37
2018-04-23T01:34:24.925Z,11.47
2018-04-23T01:36:52.457Z,13.70
2018-04-23T01:39:20.004Z,11.17
2018-04-23T01:41:47.528Z,13.17
2018-04-23T01:44:15.850Z,12.97
2018-04-23T01:46:43.371Z,13.67
2018-04-23T01:49:10.927Z,12.27
2018-04-23T01:51:38.464Z,13.63
2018-04-23T01:54:06.020Z,11.87
2018-04-23T01:56:33.539Z,12.97
2018-04-23T01:59:01.080Z,13.40
2018-04-23T02:01:28.599Z,11.43
2018-04-23T02:03:56.159Z,11.97
2018-04-23T02:06:23.683Z,13.53
2018-04-23T02:08:51.212Z,16.13
2018-04-23T02:11:18.768Z,14.03
2018-04-23T02:13:46.305Z,11.70
2018-04-23T02:16:13.861Z,14.70
2018-04-23T02:18:41.391Z,14.50
2018-04-23T02:21:08.940Z,13.17
2018-04-23T02:23:36.462Z,13.77
2018-04-23T02:26:04.792Z,15.93
2018-04-23T02:28:32.323Z,16.87
2018-04-23T02:30:59.880Z,14.80
2018-04-23T02:33:27.399Z,16.23
2018-04-23T02:35:54.953Z,16.47
2018-04-23T02:38:22.473Z,13.27
2018-04-23T02:40:50.021Z,14.43
2018-04-23T02:43:17.548Z,14.57
2018-04-23T02:45:45.873Z,13.80
2018-04-23T02:48:13.396Z,17.93
2018-04-23T02:50:41.723Z,18.37
2018-04-23T02:53:09.247Z,15.83
2018-04-23T02:55:36.804Z,18.13
2018-04-23T02:58:04.340Z,21.40
2018-04-23T03:00:32.736Z,19.07
2018-04-23T03:03:00.273Z,18.77
2018-04-23T03:05:27.820Z,19.17
2018-04-23T03:07:55.343Z,16.00
2018-04-23T03:10:22.899Z,15.10
2018-04-23T03:12:50.423Z,17.77
2018-04-23T03:15:18.755Z,16.83
2018-04-23T03:17:46.279Z,17.77
2018-04-23T03:20:13.799Z,15.43
2018-04-23T03:22:41.351Z,15.70
2018-04-23T03:25:08.884Z,12.50
2018-04-23T03:27:36.432Z,12.43
2018-04-23T03:30:03.970Z,14.30
2018-04-23T03:32:31.523Z,18.17
2018-04-23T03:34:59.804Z,13.93
2018-04-23T03:37:28.124Z,16.80
2018-04-23T03:39:55.664Z,12.10
2018-04-23T03:42:23.228Z,13.67
2018-04-23T03:44:50.752Z,14.43
2018-04-23T03:47:19.077Z,14.47
2018-04-23T03:49:46.596Z,11.97
2018-04-23T03:52:14.915Z,12.87
2018-04-23T03:54:42.436Z,11.10
2018-04-23T03:57:10.756Z,14.23
2018-04-23T03:59:38.281Z,13.17
2018-04-23T04:02:06.591Z,16.40
2018-04-23T04:04:34.111Z,14.77
2018-04-23T04:07:02.424Z,14.80
2018-04-23T04:09:29.944Z,15.70
2018-04-23T04:11:58.272Z,14.37
2018-04-23T04:14:37.690Z,20.43
2018-04-23T04:17:05.235Z,15.27
2018-04-23T04:19:33.524Z,15.70
2018-04-23T04:22:01.073Z,15.33
2018-04-23T04:24:29.359Z,16.13
2018-04-23T04:26:56.915Z,15.63
2018-04-23T04:29:24.494Z,21.60
2018-04-23T04:31:52.764Z,15.97
2018-04-23T04:34:20.324Z,15.97
2018-04-23T04:36:47.849Z,16.50
2018-04-23T04:39:15.404Z,20.50
2018-04-23T04:41:42.940Z,18.93
2018-04-23T04:44:10.547Z,21.77
2018-04-23T04:46:38.844Z,22.27
2018-04-23T04:49:06.388Z,21.53
2018-04-23T04:51:34.672Z,21.33
2018-04-23T04:54:02.285Z,27.10
2018-04-23T04:56:29.813Z,27.83
2018-04-23T04:58:57.390Z,27.83
2018-04-23T05:01:24.920Z,27.53
2018-04-23T05:03:52.467Z,27.07
2018-04-23T05:06:20.768Z,30.53
2018-04-23T05:08:48.320Z,28.80
2018-04-23T05:11:15.845Z,31.50
2018-04-23T05:13:43.402Z,29.17
2018-04-23T05:16:10.932Z,31.27
2018-04-23T05:18:38.496Z,27.57
2018-04-23T05:21:06.028Z,31.37
2018-04-23T05:23:33.580Z,31.13
2018-04-23T05:26:01.114Z,36.27
2018-04-23T05:28:29.432Z,30.97
2018-04-23T05:30:56.969Z,30.23
2018-04-23T05:33:24.501Z,27.43
2018-04-23T05:35:52.049Z,35.07
2018-04-23T05:38:19.604Z,29.47
2018-04-23T05:40:47.168Z,31.00
2018-04-23T05:43:14.750Z,32.77
2018-04-23T05:45:42.276Z,33.03
2018-04-23T05:48:09.812Z,29.67
2018-04-23T05:50:37.369Z,33.87
2018-04-23T05:53:04.904Z,31.17
2018-04-23T05:55:33.224Z,33.27
2018-04-23T05:58:00.757Z,30.53
2018-04-23T06:00:28.312Z,30.60
2018-04-23T06:02:55.831Z,31.07
2018-04-23T06:05:23.376Z,27.83
2018-04-23T06:07:50.904Z,33.13
2018-04-23T06:10:18.455Z,32.43
2018-04-23T06:12:45.976Z,31.63
2018-04-23T06:15:13.531Z,28.07
2018-04-23T06:17:41.061Z,26.87
2018-04-23T06:20:08.613Z,26.87
2018-04-23T06:22:36.132Z,26.73
2018-04-23T06:25:04.546Z,28.73
2018-04-23T06:27:32.076Z,29.00
2018-04-23T06:30:00.372Z,27.43
2018-04-23T06:32:27.932Z,25.00
2018-04-23T06:34:55.452Z,28.37
2018-04-23T06:37:23.003Z,25.23
2018-04-23T06:39:50.532Z,26.67
2018-04-23T06:42:18.088Z,26.73
2018-04-23T06:44:45.621Z,23.00
2018-04-23T06:47:13.169Z,22.80
2018-04-23T06:49:41.463Z,22.50
2018-04-23T06:52:09.018Z,23.47
2018-04-23T06:54:36.543Z,21.17
2018-04-23T06:57:04.101Z,18.70
2018-04-23T06:59:31.626Z,23.23
2018-04-23T07:01:59.179Z,22.00
2018-04-23T07:04:26.715Z,19.93
2018-04-23T07:06:54.279Z,18.43
2018-04-23T07:09:22.576Z,18.30
2018-04-23T07:11:50.128Z,20.57
2018-04-23T07:14:17.680Z,17.50
2018-04-23T07:16:46.002Z,15.70
2018-04-23T07:19:13.536Z,17.20
2018-04-23T07:21:41.112Z,16.10
2018-04-23T07:24:08.664Z,15.53
2018-04-23T07:26:36.228Z,19.00
2018-04-23T07:29:03.756Z,15.00
2018-04-23T07:31:32.080Z,15.90
2018-04-23T07:33:59.611Z,17.73
2018-04-23T07:36:27.137Z,15.57
2018-04-23T07:38:55.457Z,21.27
2018-04-23T07:41:22.980Z,15.80
2018-04-23T07:43:51.296Z,15.80
2018-04-23T07:46:18.827Z,18.53
2018-04-23T07:48:47.139Z,14.93
2018-04-23T07:51:14.664Z,14.87
2018-04-23T07:53:42.993Z,15.80
2018-04-23T07:56:10.534Z,16.93
2018-04-23T07:58:38.098Z,14.13
2018-04-23T08:01:05.630Z,14.17
2018-04-23T08:03:33.196Z,16.03
2018-04-23T08:06:00.729Z,14.57
2018-04-23T08:08:29.055Z,15.70
2018-04-23T08:10:56.584Z,14.70
2018-04-23T08:13:24.901Z,13.37
2018-04-23T08:15:52.436Z,15.03
2018-04-23T08:18:19.985Z,12.50
2018-04-23T08:20:47.518Z,13.70
2018-04-23T08:23:15.076Z,15.30
2018-04-23T08:25:42.608Z,12.73
2018-04-23T08:28:10.168Z,9.37
2018-04-23T08:30:37.688Z,9.47
2018-04-23T08:33:05.971Z,9.53
2018-04-23T08:35:33.521Z,10.47
2018-04-23T08:38:01.804Z,7.53
2018-04-23T08:40:30.116Z,8.70
2018-04-23T08:42:57.643Z,11.73
2018-04-23T08:45:25.187Z,6.43
2018-04-23T08:47:53.472Z,7.07
2018-04-23T08:50:21.804Z,6.27
2018-04-23T08:52:49.320Z,12.30
2018-04-23T08:55:16.869Z,7.30
2018-04-23T08:57:45.157Z,5.10
2018-04-23T09:00:12.716Z,7.63
2018-04-23T09:02:40.240Z,5.43
2018-04-23T09:05:07.786Z,6.23
2018-04-23T09:07:35.303Z,6.87
2018-04-23T09:10:02.846Z,6.60
2018-04-23T09:12:31.124Z,6.70
2018-04-23T09:14:59.434Z,7.67
2018-04-23T09:17:26.952Z,6.67
2018-04-23T09:19:55.272Z,9.60
2018-04-23T09:22:22.785Z,7.60
2018-04-23T09:24:50.347Z,7.03
2018-04-23T09:27:18.647Z,7.47
2018-04-23T09:29:46.192Z,6.07
2018-04-23T09:32:14.477Z,6.10
2018-04-23T09:34:42.793Z,11.50
2018-04-23T09:37:10.307Z,8.40
2018-04-23T09:39:38.617Z,7.23
2018-04-23T09:42:06.138Z,8.17
2018-04-23T09:44:33.773Z,7.50
2018-04-23T09:47:02.004Z,9.13
2018-04-23T09:49:29.552Z,8.97
2018-04-23T09:51:57.840Z,7.53
2018-04-23T09:54:25.366Z,8.13
2018-04-23T09:56:52.907Z,11.27
2018-04-23T09:59:20.432Z,8.77
2018-04-23T10:01:50.900Z,9.67
2018-04-23T10:04:21.188Z,10.93
2018-04-23T10:06:48.733Z,9.33
2018-04-23T10:09:16.248Z,9.60
2018-04-23T10:11:43.788Z,7.10
2018-04-23T10:14:11.327Z,7.37
2018-04-23T10:16:38.892Z,8.03
2018-04-23T10:19:06.399Z,8.60
2018-04-23T10:21:33.954Z,9.03
2018-04-23T10:24:01.484Z,7.63
2018-04-23T10:26:29.035Z,9.67
2018-04-23T10:28:56.561Z,6.53
2018-04-23T10:31:24.911Z,7.43
2018-04-23T10:33:52.436Z,6.67
2018-04-23T10:36:19.996Z,6.10
2018-04-23T10:38:47.511Z,7.03
2018-04-23T10:41:15.820Z,6.93
2018-04-23T10:43:43.345Z,10.03
2018-04-23T10:46:11.691Z,9.47
2018-04-23T10:48:39.259Z,6.73
2018-04-23T10:51:06.849Z,7.53
2018-04-23T10:53:34.341Z,5.70
2018-04-23T10:56:01.892Z,6.77
2018-04-23T10:58:29.407Z,10.93
2018-04-23T11:00:56.966Z,10.50
2018-04-23T11:03:24.481Z,6.13
2018-04-23T11:05:52.025Z,6.33
2018-04-23T11:08:19.543Z,7.53
2018-04-23T11:10:47.087Z,6.73
2018-04-23T11:13:14.600Z,5.60
2018-04-23T11:15:42.919Z,5.93
2018-04-23T11:18:10.438Z,7.67
2018-04-23T11:20:38.011Z,4.57
2018-04-23T11:23:05.532Z,4.93
2018-04-23T11:25:33.101Z,6.40
2018-04-23T11:28:01.401Z,6.67
2018-04-23T11:30:28.919Z,7.77
2018-04-23T11:32:56.789Z,7.00
2018-04-23T11:35:25.201Z,5.30
2018-04-23T11:37:53.606Z,5.40
2018-04-23T11:40:21.127Z,5.20
2018-04-23T11:42:49.437Z,5.53
2018-04-23T11:45:16.959Z,4.77
2018-04-23T11:47:44.509Z,5.03
2018-04-23T11:50:12.029Z,5.43
2018-04-23T11:52:39.584Z,5.70
2018-04-23T11:55:07.096Z,7.27
2018-04-23T11:57:34.644Z,5.80
2018-04-23T12:00:02.181Z,7.13
2018-04-23T12:02:29.759Z,5.63
2018-04-23T12:04:57.259Z,6.10
2018-04-23T12:07:25.574Z,5.33
2018-04-23T12:09:53.096Z,6.23
2018-04-23T12:12:22.185Z,5.77
2018-04-23T12:14:49.728Z,6.83
2018-04-23T12:17:17.276Z,6.50
2018-04-23T12:19:44.787Z,8.33
2018-04-23T12:22:12.332Z,5.13
2018-04-23T12:24:39.856Z,6.50
2018-04-23T12:27:07.395Z,6.60
2018-04-23T12:29:34.911Z,6.07
2018-04-23T12:32:04.239Z,6.53
2018-04-23T12:34:31.747Z,7.33
2018-04-23T12:36:59.292Z,6.87
2018-04-23T12:39:27.585Z,5.07
2018-04-23T12:41:55.128Z,5.70
2018-04-23T12:44:22.644Z,5.90
2018-04-23T12:46:50.188Z,5.63
2018-04-23T12:49:18.471Z,5.73
2018-04-23T12:51:46.020Z,6.57
2018-04-23T12:54:14.300Z,4.57
2018-04-23T12:56:42.608Z,5.50
2018-04-23T12:59:10.123Z,5.33
2018-04-23T13:01:38.447Z,5.03
2018-04-23T13:04:05.979Z,7.73
2018-04-23T13:06:34.255Z,5.93
2018-04-23T13:09:02.573Z,4.00
2018-04-23T13:11:30.092Z,6.93
2018-04-23T13:13:58.402Z,4.23
2018-04-23T13:16:25.916Z,6.10
2018-04-23T13:18:54.236Z,5.10
2018-04-23T13:21:21.752Z,4.63
2018-04-23T13:23:49.300Z,4.63
2018-04-23T13:26:16.812Z,5.50
2018-04-23T13:28:44.352Z,4.83
2018-04-23T13:31:12.636Z,4.67
2018-04-23T13:33:40.189Z,4.40
2018-04-23T13:36:07.711Z,5.33
2018-04-23T13:38:35.258Z,4.40
2018-04-23T13:41:02.780Z,4.73
2018-04-23T13:43:30.383Z,6.43
2018-04-23T13:45:58.507Z,6.80
2018-04-23T13:48:28.121Z,5.53
2018-04-23T13:50:56.283Z,5.73
2018-04-23T13:53:24.688Z,5.87
2018-04-23T13:55:52.212Z,4.67
2018-04-23T13:58:20.529Z,6.10
2018-04-23T14:00:48.073Z,5.80
2018-04-23T14:03:15.624Z,5.53
2018-04-23T14:05:43.904Z,5.23
2018-04-23T14:08:11.469Z,7.93
2018-04-23T14:10:38.983Z,4.83
2018-04-23T14:13:06.533Z,6.00
2018-04-23T14:15:34.056Z,5.23
2018-04-23T14:18:01.603Z,5.60
2018-04-23T14:20:29.138Z,5.12
2018-04-23T14:22:57.052Z,5.90
2018-04-23T14:25:24.573Z,5.13
2018-04-23T14:27:52.126Z,5.23
2018-04-23T14:30:19.645Z,5.33
2018-04-23T14:32:47.207Z,6.33
2018-04-23T14:35:14.723Z,5.30
2018-04-23T14:37:43.111Z,6.20
2018-04-23T14:40:10.600Z,5.97
2018-04-23T14:42:38.124Z,5.33
2018-04-23T14:45:06.440Z,5.60
2018-04-23T14:47:33.964Z,5.87
2018-04-23T14:50:01.525Z,7.20
2018-04-23T14:52:29.060Z,6.60
2018-04-23T14:54:56.621Z,6.30
2018-04-23T14:57:24.152Z,5.83
2018-04-23T14:59:51.704Z,6.47
2018-04-23T15:02:19.228Z,6.47
2018-04-23T15:04:47.535Z,6.13
2018-04-23T15:07:15.052Z,7.17
2018-04-23T15:09:43.367Z,7.20
2018-04-23T15:12:10.887Z,6.57
2018-04-23T15:14:39.204Z,6.87
2018-04-23T15:17:06.731Z,6.47
2018-04-23T15:19:35.041Z,5.20
2018-04-23T15:22:02.564Z,5.57
2018-04-23T15:24:30.883Z,7.90
2018-04-23T15:26:58.403Z,7.27
2018-04-23T15:29:26.717Z,6.63
2018-04-23T15:31:54.243Z,4.77
2018-04-23T15:34:22.559Z,6.97
2018-04-23T15:36:50.083Z,6.07
2018-04-23T15:39:18.396Z,8.67
2018-04-23T15:41:45.915Z,6.40
2018-04-23T15:44:14.233Z,4.77
2018-04-23T15:46:41.765Z,6.40
2018-04-23T15:49:09.369Z,8.37
2018-04-23T15:51:36.910Z,6.35
2018-04-23T15:54:04.470Z,6.43
2018-04-23T15:56:32.005Z,6.97
2018-04-23T15:58:59.566Z,6.37
2018-04-23T16:01:27.849Z,5.97
2018-04-23T16:03:55.458Z,5.43
2018-04-23T16:06:22.940Z,6.20
2018-04-23T16:08:50.479Z,7.03
2018-04-23T16:11:18.036Z,6.50
2018-04-23T16:13:45.552Z,5.67
2018-04-23T16:16:13.091Z,5.13
2018-04-23T16:18:41.372Z,6.07
2018-04-23T16:21:09.692Z,5.37
2018-04-23T16:23:37.212Z,10.73
2018-04-23T16:26:05.524Z,5.47
2018-04-23T16:28:33.040Z,8.23
2018-04-23T16:31:00.600Z,9.33
2018-04-23T16:33:28.884Z,5.93
2018-04-23T16:35:57.187Z,5.77
2018-04-23T16:38:24.706Z,6.10
2018-04-23T16:40:52.253Z,5.73
2018-04-23T16:43:19.777Z,7.00
2018-04-23T16:45:47.332Z,5.57
2018-04-23T16:48:14.850Z,6.20
2018-04-23T16:50:43.168Z,7.47
2018-04-23T16:53:10.706Z,5.77
2018-04-23T16:55:39.022Z,7.40
2018-04-23T16:58:06.546Z,7.73
2018-04-23T17:00:34.855Z,6.07
2018-04-23T17:03:02.367Z,6.90
2018-04-23T17:05:30.689Z,7.83
2018-04-23T17:07:58.208Z,7.03
2018-04-23T17:10:26.528Z,8.80
2018-04-23T17:12:54.037Z,7.90
2018-04-23T17:15:21.601Z,6.93
2018-04-23T17:17:49.123Z,4.53
2018-04-23T17:20:16.669Z,7.00
2018-04-23T17:22:44.183Z,6.03
2018-04-23T17:25:11.762Z,5.20
2018-04-23T17:27:39.292Z,5.63
2018-04-23T17:30:06.835Z,4.67
2018-04-23T17:32:34.356Z,6.80
2018-04-23T17:35:01.895Z,5.30
2018-04-23T17:37:30.175Z,5.80
2018-04-23T17:39:58.484Z,5.13
2018-04-23T17:42:26.000Z,4.20
2018-04-23T17:44:53.552Z,5.67
2018-04-23T17:47:21.076Z,5.83
2018-04-23T17:49:48.636Z,4.77
2018-04-23T17:52:16.151Z,4.70
2018-04-23T17:54:44.452Z,4.67
2018-04-23T17:57:11.999Z,3.40
2018-04-23T17:59:39.520Z,6.30
2018-04-23T18:02:08.674Z,3.70
2018-04-23T18:04:36.184Z,5.40
2018-04-23T18:07:03.724Z,5.10
2018-04-23T18:09:31.244Z,5.57
2018-04-23T18:11:58.788Z,4.53
2018-04-23T18:14:27.067Z,6.07
2018-04-23T18:16:55.380Z,3.63
2018-04-23T18:19:22.903Z,7.43
2018-04-23T18:21:51.211Z,5.30
2018-04-23T18:24:18.724Z,4.50
2018-04-23T18:26:47.035Z,3.97
2018-04-23T18:29:14.560Z,4.80
2018-04-23T18:31:42.105Z,5.13
2018-04-23T18:34:09.836Z,4.13
2018-04-23T18:36:37.429Z,4.77
2018-04-23T18:39:05.817Z,4.77
2018-04-23T18:41:33.370Z,5.73
2018-04-23T18:44:00.893Z,4.50
2018-04-23T18:46:28.463Z,4.33
2018-04-23T18:48:55.979Z,5.30
2018-04-23T18:51:23.597Z,5.37
2018-04-23T18:53:51.096Z,4.77
2018-04-23T18:56:19.410Z,5.73
2018-04-23T18:58:47.501Z,3.47
2018-04-23T19:01:15.064Z,7.90
2018-04-23T19:03:42.584Z,6.50
2018-04-23T19:06:10.151Z,3.80
2018-04-23T19:08:37.714Z,5.00
2018-04-23T19:11:05.257Z,6.10
2018-04-23T19:13:32.784Z,3.97
2018-04-23T19:16:00.325Z,5.43
2018-04-23T19:18:27.844Z,5.03
2018-04-23T19:20:55.521Z,5.00
2018-04-23T19:23:23.543Z,4.33
2018-04-23T19:25:51.341Z,4.97
2018-04-23T19:28:18.864Z,5.20
2018-04-23T19:30:46.385Z,4.87
2018-04-23T19:33:13.952Z,3.50
2018-04-23T19:35:41.476Z,5.30
2018-04-23T19:38:09.783Z,4.43
2018-04-23T19:40:37.308Z,4.00
2018-04-23T19:43:05.623Z,10.03
2018-04-23T19:45:33.136Z,7.97
2018-04-23T19:48:01.461Z,4.47
2018-04-23T19:50:28.980Z,9.67
2018-04-23T19:52:57.300Z,5.97
2018-04-23T19:55:24.818Z,5.60
2018-04-23T19:57:53.128Z,6.07
2018-04-23T20:00:20.661Z,6.87
2018-04-23T20:02:48.995Z,3.83
2018-04-23T20:05:16.512Z,7.43
2018-04-23T20:07:44.054Z,7.67
2018-04-23T20:10:12.344Z,5.07
2018-04-23T20:12:39.888Z,5.27
2018-04-23T20:15:08.176Z,4.93
2018-04-23T20:17:36.492Z,7.27
2018-04-23T20:20:04.023Z,4.20
2018-04-23T20:22:31.560Z,4.90
2018-04-23T20:24:59.843Z,6.97
2018-04-23T20:27:28.161Z,5.53
2018-04-23T20:29:55.684Z,5.90
2018-04-23T20:32:24.006Z,4.93
2018-04-23T20:34:51.526Z,4.57
2018-04-23T20:37:19.083Z,3.50
2018-04-23T20:39:47.368Z,7.70
2018-04-23T20:42:14.921Z,7.33
2018-04-23T20:44:43.206Z,4.07
2018-04-23T20:47:10.760Z,4.40
2018-04-23T20:49:38.287Z,4.93
2018-04-23T20:52:05.827Z,6.03
2018-04-23T20:54:33.396Z,5.90
2018-04-23T20:57:00.931Z,5.33
2018-04-23T20:59:28.492Z,3.23
2018-04-23T21:01:56.012Z,3.93
2018-04-23T21:04:24.328Z,4.40
2018-04-23T21:06:51.857Z,4.07
2018-04-23T21:09:20.174Z,5.37
2018-04-23T21:11:47.700Z,4.37
2018-04-23T21:14:15.249Z,8.67
2018-04-23T21:16:43.548Z,6.27
2018-04-23T21:19:11.097Z,4.53
2018-04-23T21:21:39.384Z,5.60
2018-04-23T21:24:06.923Z,6.40
2018-04-23T21:26:35.214Z,6.30
2018-04-23T21:29:03.527Z,3.67
2018-04-23T21:31:31.052Z,6.77
2018-04-23T21:33:58.606Z,4.43
2018-04-23T21:36:26.905Z,4.20
2018-04-23T21:38:54.456Z,5.47
2018-04-23T21:41:21.980Z,3.70
2018-04-23T21:43:49.534Z,3.93
2018-04-23T21:46:17.052Z,4.07
2018-04-23T21:48:44.603Z,4.03
2018-04-23T21:51:12.133Z,5.40
2018-04-23T21:53:40.466Z,5.77
2018-04-23T21:56:07.988Z,5.97
2018-04-23T21:58:35.509Z,6.33
2018-04-23T22:01:03.056Z,4.03
2018-04-23T22:03:30.588Z,6.13
2018-04-23T22:05:58.145Z,4.10
2018-04-23T22:08:25.673Z,4.27
2018-04-23T22:10:53.249Z,4.03
2018-04-23T22:13:20.787Z,4.83
2018-04-23T22:15:49.110Z,6.03
2018-04-23T22:18:16.703Z,5.33
2018-04-23T22:20:44.201Z,4.00
2018-04-23T22:23:12.505Z,4.80
2018-04-23T22:25:40.059Z,5.83
2018-04-23T22:28:07.587Z,4.83
2018-04-23T22:30:35.905Z,4.93
2018-04-23T22:33:03.431Z,4.07
2018-04-23T22:35:31.759Z,6.77
2018-04-23T22:37:59.286Z,3.97
2018-04-23T22:40:26.836Z,3.97
2018-04-23T22:42:55.142Z,3.63
2018-04-23T22:45:22.691Z,4.23
2018-04-23T22:47:50.209Z,4.63
2018-04-23T22:50:17.756Z,4.47
2018-04-23T22:52:45.287Z,4.73
2018-04-23T22:55:12.843Z,4.60
2018-04-23T22:57:40.357Z,7.00
2018-04-23T23:00:08.679Z,7.03
2018-04-23T23:02:36.209Z,5.87
2018-04-23T23:05:04.563Z,3.77
2018-04-23T23:07:32.093Z,4.70
2018-04-23T23:09:59.660Z,3.67
2018-04-23T23:12:27.192Z,3.30
2018-04-23T23:14:54.745Z,4.07
2018-04-23T23:17:22.276Z,7.03
2018-04-23T23:19:50.601Z,5.87
2018-04-23T23:22:18.127Z,5.23
2018-04-23T23:24:46.435Z,5.47
2018-04-23T23:27:13.956Z,7.37
2018-04-23T23:29:42.273Z,6.83
2018-04-23T23:32:09.833Z,6.17
2018-04-23T23:34:37.361Z,5.20
2018-04-23T23:37:05.684Z,7.03
2018-04-23T23:39:33.210Z,6.77
2018-04-23T23:42:00.755Z,6.83
2018-04-23T23:44:29.052Z,6.83
2018-04-23T23:46:56.623Z,6.53
2018-04-23T23:49:24.150Z,5.93
2018-04-23T23:51:52.463Z,4.80
2018-04-23T23:54:19.987Z,5.57
2018-04-23T23:56:48.297Z,4.67
2018-04-23T23:59:15.875Z,5.93
